Queenstown, South Africa
Current Conditions -  °F | °C
As of 10:00 AM on Thursday 29 Jan 2015 (Local Time) from FAEL Reporting Station
Scattered Clouds Scattered Clouds  
Wind Chill: 77°   Ceiling: Unl
Heat Index: 79°   Visibility: 6mi
Dew Point: 64°   Wind: 15mph
Humidity: 65%   Direction: 70°ENE
Pressure: 30.06"   Gusts: NA
Location:  31.9°S, 26.88°E
Report Text: FAEL 290800Z 07013KT 040V100 9999 FEW023 SCT035 25/18 Q1018
Loading
Personal Weather Stations






























Interactive Weather Map New forecast layout! Learn more

10-Day Weather Forecast

Advertisements
Track Severe Weather on mobile